createdAt,value
2018-12-01T00:00:25.506Z,44.93
2018-12-01T00:02:54.477Z,42.97
2018-12-01T00:05:29.173Z,44.13
2018-12-01T00:07:58.177Z,44.87
2018-12-01T00:10:27.173Z,46.50
2018-12-01T00:12:56.265Z,45.37
2018-12-01T00:15:26.473Z,45.43
2018-12-01T00:17:55.890Z,44.87
2018-12-01T00:20:26.233Z,48.17
2018-12-01T00:22:55.225Z,46.40
2018-12-01T00:25:24.217Z,47.40
2018-12-01T00:27:53.175Z,44.90
2018-12-01T00:30:23.305Z,44.87
2018-12-01T00:32:52.924Z,43.40
2018-12-01T00:35:21.921Z,46.87
2018-12-01T00:37:50.899Z,44.50
2018-12-01T00:40:20.761Z,44.07
2018-12-01T00:42:49.782Z,45.00
2018-12-01T00:45:19.634Z,47.50
2018-12-01T00:47:50.805Z,45.30
2018-12-01T00:50:20.691Z,44.03
2018-12-01T00:52:50.437Z,48.43
2018-12-01T00:55:20.024Z,46.03
2018-12-01T00:57:48.998Z,47.80
2018-12-01T01:00:23.557Z,47.67
2018-12-01T01:02:55.903Z,45.83
2018-12-01T01:05:25.859Z,43.20
2018-12-01T01:07:55.501Z,46.33
2018-12-01T01:10:25.561Z,46.73
2018-12-01T01:12:54.549Z,43.53
2018-12-01T01:15:23.501Z,46.97
2018-12-01T01:17:52.485Z,47.40
2018-12-01T01:20:22.530Z,46.17
2018-12-01T01:22:51.717Z,47.53
2018-12-01T01:25:20.734Z,44.67
2018-12-01T01:27:49.690Z,45.33
2018-12-01T01:30:23.389Z,44.57
2018-12-01T01:33:03.441Z,42.87
2018-12-01T01:35:32.516Z,43.97
2018-12-01T01:38:01.472Z,45.17
2018-12-01T01:40:30.435Z,45.07
2018-12-01T01:42:59.514Z,45.53
2018-12-01T01:45:28.504Z,44.63
2018-12-01T01:47:57.477Z,45.73
2018-12-01T01:50:26.565Z,45.33
2018-12-01T01:52:55.541Z,45.30
2018-12-01T01:55:24.529Z,46.50
2018-12-01T01:57:53.609Z,46.17
2018-12-01T02:00:22.616Z,45.43
2018-12-01T02:02:52.243Z,45.07
2018-12-01T02:05:22.537Z,43.67
2018-12-01T02:07:51.561Z,45.00
2018-12-01T02:10:21.258Z,47.30
2018-12-01T02:12:50.286Z,46.13
2018-12-01T02:15:19.265Z,41.47
2018-12-01T02:17:48.224Z,44.93
2018-12-01T02:20:18.087Z,46.40
2018-12-01T02:22:47.085Z,47.90
2018-12-01T02:25:17.846Z,47.03
2018-12-01T02:27:47.220Z,47.57
2018-12-01T02:30:18.158Z,47.53
2018-12-01T02:32:47.461Z,44.63
2018-12-01T02:35:18.609Z,46.63
2018-12-01T02:37:47.602Z,48.20
2018-12-01T02:40:16.574Z,44.67
2018-12-01T02:42:45.580Z,45.77
2018-12-01T02:45:25.943Z,46.13
2018-12-01T02:47:55.070Z,44.93
2018-12-01T02:50:29.698Z,46.40
2018-12-01T02:52:59.779Z,47.70
2018-12-01T02:55:28.982Z,45.30
2018-12-01T02:57:57.979Z,48.00
2018-12-01T03:00:27.068Z,48.87
2018-12-01T03:02:56.038Z,47.60
2018-12-01T03:05:25.039Z,47.73
2018-12-01T03:07:54.169Z,48.60
2018-12-01T03:10:23.290Z,48.30
2018-12-01T03:12:53.513Z,45.70
2018-12-01T03:15:22.570Z,47.73
2018-12-01T03:17:51.944Z,49.43
2018-12-01T03:20:21.062Z,47.07
2018-12-01T03:22:50.062Z,48.53
2018-12-01T03:25:19.800Z,47.90
2018-12-01T03:27:50.509Z,48.87
2018-12-01T03:30:20.429Z,49.90
2018-12-01T03:32:50.258Z,46.93
2018-12-01T03:35:19.776Z,49.60
2018-12-01T03:37:49.449Z,48.93
2018-12-01T03:40:19.294Z,49.03
2018-12-01T03:42:48.561Z,46.57
2018-12-01T03:45:18.501Z,48.00
2018-12-01T03:47:47.501Z,43.93
2018-12-01T03:50:22.073Z,48.40
2018-12-01T03:52:56.210Z,48.00
2018-12-01T03:55:33.897Z,47.53
2018-12-01T03:58:03.440Z,50.10
2018-12-01T04:00:33.320Z,46.60
2018-12-01T04:03:03.079Z,48.00
2018-12-01T04:05:32.205Z,48.70
2018-12-01T04:08:01.199Z,48.67
2018-12-01T04:10:30.240Z,47.30
2018-12-01T04:12:59.320Z,50.40
2018-12-01T04:15:28.287Z,49.53
2018-12-01T04:17:57.241Z,49.93
2018-12-01T04:20:26.316Z,50.40
2018-12-01T04:22:55.286Z,49.13
2018-12-01T04:25:24.249Z,48.43
2018-12-01T04:27:53.276Z,49.67
2018-12-01T04:30:23.322Z,50.60
2018-12-01T04:32:52.314Z,50.03
2018-12-01T04:35:22.584Z,51.97
2018-12-01T04:37:55.386Z,51.73
2018-12-01T04:40:24.914Z,50.33
2018-12-01T04:42:54.133Z,51.33
2018-12-01T04:45:23.169Z,50.20
2018-12-01T04:47:52.153Z,48.90
2018-12-01T04:50:21.137Z,52.27
2018-12-01T04:52:50.194Z,51.30
2018-12-01T04:55:20.132Z,51.53
2018-12-01T04:57:49.138Z,52.47
2018-12-01T05:00:19.994Z,49.73
2018-12-01T05:02:48.989Z,52.07
2018-12-01T05:05:19.101Z,52.30
2018-12-01T05:07:48.148Z,52.03
2018-12-01T05:10:18.098Z,50.50
2018-12-01T05:12:47.137Z,51.57
2018-12-01T05:15:16.994Z,52.10
2018-12-01T05:17:46.933Z,50.53
2018-12-01T05:20:18.009Z,51.77
2018-12-01T05:22:47.147Z,51.60
2018-12-01T05:25:16.168Z,51.50
2018-12-01T05:27:45.163Z,49.73
2018-12-01T05:30:14.198Z,51.60
2018-12-01T05:32:43.183Z,51.37
2018-12-01T05:35:16.358Z,50.43
2018-12-01T05:37:45.350Z,52.70
2018-12-01T05:40:14.457Z,49.93
2018-12-01T05:42:43.560Z,50.17
2018-12-01T05:45:16.601Z,54.93
2018-12-01T05:47:45.647Z,51.40
2018-12-01T05:50:15.724Z,52.47
2018-12-01T05:52:44.725Z,51.50
2018-12-01T05:55:13.718Z,51.47
2018-12-01T05:57:42.674Z,53.40
2018-12-01T06:00:13.874Z,51.17
2018-12-01T06:02:42.862Z,52.57
2018-12-01T06:05:12.211Z,50.47
2018-12-01T06:07:42.036Z,50.13
2018-12-01T06:10:16.193Z,50.60
2018-12-01T06:12:45.558Z,51.83
2018-12-01T06:15:15.491Z,50.57
2018-12-01T06:17:44.502Z,51.03
2018-12-01T06:20:14.813Z,51.30
2018-12-01T06:22:43.809Z,51.67
2018-12-01T06:25:14.139Z,55.40
2018-12-01T06:27:43.172Z,51.23
2018-12-01T06:30:13.621Z,51.10
2018-12-01T06:32:42.667Z,55.67
2018-12-01T06:35:11.686Z,51.07
2018-12-01T06:37:40.769Z,50.80
2018-12-01T06:40:12.124Z,54.80
2018-12-01T06:42:41.032Z,54.40
2018-12-01T06:45:12.129Z,55.93
2018-12-01T06:47:41.123Z,55.87
2018-12-01T06:50:25.049Z,53.43
2018-12-01T06:52:54.246Z,55.20
2018-12-01T06:55:23.750Z,55.30
2018-12-01T06:57:52.774Z,52.17
2018-12-01T07:00:25.407Z,53.90
2018-12-01T07:02:55.553Z,55.17
2018-12-01T07:05:24.555Z,53.07
2018-12-01T07:07:53.559Z,53.57
2018-12-01T07:10:23.248Z,55.03
2018-12-01T07:12:55.531Z,53.73
2018-12-01T07:15:31.383Z,50.40
2018-12-01T07:18:00.378Z,55.10
2018-12-01T07:20:29.356Z,52.63
2018-12-01T07:22:58.346Z,52.80
2018-12-01T07:25:27.342Z,52.97
2018-12-01T07:27:56.315Z,53.60
2018-12-01T07:30:25.309Z,51.40
2018-12-01T07:32:54.274Z,53.00
2018-12-01T07:35:23.307Z,53.10
2018-12-01T07:37:52.273Z,54.97
2018-12-01T07:40:21.288Z,56.57
2018-12-01T07:42:50.261Z,54.77
2018-12-01T07:45:19.260Z,54.77
2018-12-01T07:47:48.285Z,55.00
2018-12-01T07:50:18.197Z,54.50
2018-12-01T07:52:54.273Z,53.73
2018-12-01T07:55:23.273Z,51.00
2018-12-01T07:57:52.251Z,55.60
2018-12-01T08:00:22.142Z,52.87
2018-12-01T08:02:51.367Z,51.43
2018-12-01T08:05:20.436Z,52.03
2018-12-01T08:07:49.403Z,56.80
2018-12-01T08:10:18.393Z,55.73
2018-12-01T08:12:47.376Z,58.00
2018-12-01T08:15:17.297Z,54.57
2018-12-01T08:17:46.902Z,55.27
2018-12-01T08:20:16.782Z,52.30
2018-12-01T08:22:45.734Z,52.43
2018-12-01T08:25:16.634Z,51.50
2018-12-01T08:27:46.866Z,54.40
2018-12-01T08:30:19.137Z,49.17
2018-12-01T08:32:48.106Z,56.03
2018-12-01T08:35:17.101Z,48.57
2018-12-01T08:37:46.088Z,50.73
2018-12-01T08:40:18.330Z,50.93
2018-12-01T08:42:47.299Z,50.93
2018-12-01T08:45:16.270Z,57.03
2018-12-01T08:47:45.269Z,51.93
2018-12-01T08:50:17.427Z,57.23
2018-12-01T08:52:46.506Z,56.30
2018-12-01T08:55:16.752Z,53.37
2018-12-01T08:57:45.790Z,52.93
2018-12-01T09:00:18.018Z,50.43
2018-12-01T09:02:49.590Z,50.37
2018-12-01T09:05:18.558Z,51.67
2018-12-01T09:07:47.522Z,51.67
2018-12-01T09:10:16.611Z,53.37
2018-12-01T09:12:45.648Z,51.37
2018-12-01T09:15:14.666Z,47.57
2018-12-01T09:17:43.637Z,50.67
2018-12-01T09:20:13.531Z,46.97
2018-12-01T09:22:43.713Z,49.90
2018-12-01T09:25:14.722Z,49.70
2018-12-01T09:27:43.745Z,50.43
2018-12-01T09:30:17.937Z,48.17
2018-12-01T09:32:46.977Z,47.87
2018-12-01T09:35:15.949Z,44.00
2018-12-01T09:37:44.922Z,47.93
2018-12-01T09:40:14.943Z,45.70
2018-12-01T09:42:44.120Z,46.53
2018-12-01T09:45:20.234Z,45.83
2018-12-01T09:47:50.085Z,44.40
2018-12-01T09:50:19.058Z,42.93
2018-12-01T09:52:49.528Z,45.30
2018-12-01T09:55:21.806Z,47.47
2018-12-01T09:57:50.862Z,47.07
2018-12-01T10:00:24.105Z,45.63
2018-12-01T10:02:53.119Z,48.20
2018-12-01T10:05:22.311Z,48.63
2018-12-01T10:07:51.685Z,47.53
2018-12-01T10:10:21.707Z,45.60
2018-12-01T10:12:52.828Z,40.70
2018-12-01T10:15:23.938Z,44.90
2018-12-01T10:17:52.487Z,43.20
2018-12-01T10:20:28.689Z,42.40
2018-12-01T10:22:58.134Z,42.07
2018-12-01T10:25:27.114Z,43.73
2018-12-01T10:27:56.104Z,43.77
2018-12-01T10:30:25.073Z,42.63
2018-12-01T10:32:55.001Z,40.73
2018-12-01T10:35:25.752Z,40.20
2018-12-01T10:37:58.273Z,40.27
2018-12-01T10:40:28.013Z,41.77
2018-12-01T10:42:57.031Z,42.60
2018-12-01T10:45:25.992Z,40.10
2018-12-01T10:47:55.130Z,38.57
2018-12-01T10:50:24.474Z,38.00
2018-12-01T10:52:55.882Z,37.90
2018-12-01T10:55:27.779Z,37.20
2018-12-01T10:58:03.358Z,35.43
2018-12-01T11:00:37.983Z,35.90
2018-12-01T11:03:14.477Z,35.43
2018-12-01T11:05:44.577Z,36.77
2018-12-01T11:08:14.821Z,37.77
2018-12-01T11:10:44.627Z,37.33
2018-12-01T11:13:13.606Z,37.23
2018-12-01T11:15:43.021Z,35.27
2018-12-01T11:18:13.822Z,36.53
2018-12-01T11:20:43.067Z,37.37
2018-12-01T11:23:12.045Z,37.67
2018-12-01T11:25:42.252Z,38.63
2018-12-01T11:28:12.042Z,38.23
2018-12-01T11:30:42.453Z,40.83
2018-12-01T11:33:11.474Z,37.10
2018-12-01T11:35:40.458Z,36.07
2018-12-01T11:38:09.833Z,35.47
2018-12-01T11:40:38.794Z,34.83
2018-12-01T11:43:08.742Z,35.37
2018-12-01T11:45:37.919Z,33.03
2018-12-01T11:48:07.254Z,30.00
2018-12-01T11:50:37.238Z,30.33
2018-12-01T11:53:06.458Z,27.87
2018-12-01T11:55:35.927Z,28.73
2018-12-01T11:58:05.058Z,27.23
2018-12-01T12:00:34.076Z,26.70
2018-12-01T12:03:03.097Z,25.83
2018-12-01T12:05:32.411Z,27.10
2018-12-01T12:08:15.593Z,27.27
2018-12-01T12:10:44.762Z,28.20
2018-12-01T12:13:13.785Z,27.63
2018-12-01T12:15:42.798Z,29.20
2018-12-01T12:18:11.921Z,29.23
2018-12-01T12:20:40.915Z,29.10
2018-12-01T12:23:09.885Z,28.93
2018-12-01T12:25:38.962Z,31.03
2018-12-01T12:28:08.029Z,31.83
2018-12-01T12:30:39.560Z,30.37
2018-12-01T12:33:08.555Z,29.77
2018-12-01T12:35:37.910Z,29.03
2018-12-01T12:38:07.845Z,29.40
2018-12-01T12:40:36.848Z,29.53
2018-12-01T12:43:06.205Z,31.37
2018-12-01T12:45:35.215Z,30.60
2018-12-01T12:48:04.488Z,30.87
2018-12-01T12:50:34.510Z,30.77
2018-12-01T12:53:03.523Z,30.30
2018-12-01T12:55:32.497Z,30.17
2018-12-01T12:58:01.474Z,30.83
2018-12-01T13:00:30.505Z,29.63
2018-12-01T13:03:02.886Z,30.30
2018-12-01T13:05:37.995Z,31.17
2018-12-01T13:08:08.669Z,30.60
2018-12-01T13:10:37.737Z,31.70
2018-12-01T13:13:07.194Z,29.40
2018-12-01T13:15:37.477Z,30.13
2018-12-01T13:18:09.754Z,30.00
2018-12-01T13:20:39.129Z,31.00
2018-12-01T13:23:08.533Z,32.47
2018-12-01T13:25:38.881Z,32.43
2018-12-01T13:28:10.553Z,31.50
2018-12-01T13:30:44.414Z,32.13
2018-12-01T13:33:14.178Z,32.53
2018-12-01T13:35:43.167Z,33.53
2018-12-01T13:38:12.502Z,32.47
2018-12-01T13:40:41.894Z,32.33
2018-12-01T13:43:10.907Z,34.33
2018-12-01T13:45:40.713Z,33.07
2018-12-01T13:48:09.930Z,33.67
2018-12-01T13:50:38.935Z,34.87
2018-12-01T13:53:09.681Z,36.93
2018-12-01T13:55:39.396Z,34.00
2018-12-01T13:58:08.421Z,34.03
2018-12-01T14:00:37.673Z,36.70
2018-12-01T14:03:06.861Z,36.07
2018-12-01T14:05:35.851Z,31.43
2018-12-01T14:08:05.405Z,34.67
2018-12-01T14:10:35.381Z,35.73
2018-12-01T14:13:07.058Z,35.97
2018-12-01T14:15:36.012Z,36.17
2018-12-01T14:18:05.794Z,35.53
2018-12-01T14:20:34.853Z,38.23
2018-12-01T14:23:03.858Z,38.20
2018-12-01T14:25:33.045Z,37.50
2018-12-01T14:28:05.531Z,38.13
2018-12-01T14:30:35.422Z,37.23
2018-12-01T14:33:04.429Z,38.27
2018-12-01T14:35:34.983Z,45.97
2018-12-01T14:38:12.098Z,41.87
2018-12-01T14:40:42.480Z,48.60
2018-12-01T14:43:12.155Z,73.33
2018-12-01T14:45:41.922Z,75.43
2018-12-01T14:48:10.898Z,73.90
2018-12-01T14:50:40.846Z,58.80
2018-12-01T14:53:11.337Z,56.87
2018-12-01T14:55:40.330Z,53.67
2018-12-01T14:58:09.335Z,53.43
2018-12-01T15:00:38.521Z,54.93
2018-12-01T15:03:08.473Z,48.83
2018-12-01T15:05:38.345Z,52.30
2018-12-01T15:08:08.358Z,49.70
2018-12-01T15:10:37.445Z,47.97
2018-12-01T15:13:07.111Z,52.83
2018-12-01T15:15:36.160Z,54.70
2018-12-01T15:18:05.427Z,51.80
2018-12-01T15:20:35.546Z,56.00
2018-12-01T15:23:04.808Z,57.23
2018-12-01T15:25:33.790Z,52.47
2018-12-01T15:28:02.853Z,52.93
2018-12-01T15:30:31.854Z,57.87
2018-12-01T15:33:06.887Z,62.07
2018-12-01T15:35:35.945Z,66.43
2018-12-01T15:38:05.626Z,66.83
2018-12-01T15:40:34.729Z,65.00
2018-12-01T15:43:03.733Z,66.17
2018-12-01T15:45:32.703Z,58.17
2018-12-01T15:48:01.715Z,64.70
2018-12-01T15:50:30.686Z,66.53
2018-12-01T15:52:59.693Z,68.63
2018-12-01T15:55:28.657Z,67.93
2018-12-01T15:57:57.626Z,60.87
2018-12-01T16:00:27.626Z,72.27
2018-12-01T16:02:56.585Z,68.30
2018-12-01T16:05:25.626Z,66.93
2018-12-01T16:07:56.901Z,68.90
2018-12-01T16:10:26.172Z,71.80
2018-12-01T16:13:00.307Z,75.70
2018-12-01T16:15:31.811Z,78.10
2018-12-01T16:18:00.832Z,66.47
2018-12-01T16:20:29.840Z,76.17
2018-12-01T16:22:58.827Z,74.23
2018-12-01T16:25:27.934Z,75.40
2018-12-01T16:27:56.916Z,76.77
2018-12-01T16:30:29.170Z,78.07
2018-12-01T16:33:02.590Z,76.50
2018-12-01T16:35:31.611Z,74.70
2018-12-01T16:38:00.591Z,83.07
2018-12-01T16:40:50.337Z,80.67
2018-12-01T16:43:19.333Z,80.27
2018-12-01T16:45:50.109Z,80.10
2018-12-01T16:48:19.563Z,81.13
2018-12-01T16:50:48.909Z,75.37
2018-12-01T16:53:19.279Z,73.00
2018-12-01T16:55:48.309Z,72.23
2018-12-01T16:58:17.298Z,74.57
2018-12-01T17:00:46.297Z,73.40
2018-12-01T17:03:15.314Z,72.00
2018-12-01T17:05:50.349Z,72.70
2018-12-01T17:08:19.322Z,65.13
2018-12-01T17:10:49.133Z,68.40
2018-12-01T17:13:18.190Z,68.73
2018-12-01T17:15:47.166Z,68.60
2018-12-01T17:18:17.240Z,71.20
2018-12-01T17:20:46.236Z,57.13
2018-12-01T17:23:16.325Z,68.53
2018-12-01T17:25:46.197Z,71.50
2018-12-01T17:28:17.613Z,74.63
2018-12-01T17:30:46.635Z,70.80
2018-12-01T17:33:15.657Z,63.10
2018-12-01T17:35:44.667Z,62.27
2018-12-01T17:38:16.126Z,55.57
2018-12-01T17:40:55.226Z,56.80
2018-12-01T17:43:30.290Z,50.37
2018-12-01T17:45:59.285Z,48.37
2018-12-01T17:48:28.686Z,53.70
2018-12-01T17:50:57.687Z,49.97
2018-12-01T17:53:26.810Z,47.20
2018-12-01T17:55:55.802Z,49.60
2018-12-01T17:58:25.637Z,48.80
2018-12-01T18:00:54.646Z,43.40
2018-12-01T18:03:23.613Z,44.67
2018-12-01T18:05:52.946Z,44.77
2018-12-01T18:08:23.408Z,44.17
2018-12-01T18:10:53.811Z,49.03
2018-12-01T18:13:23.426Z,46.97
2018-12-01T18:15:52.386Z,44.63
2018-12-01T18:18:21.455Z,48.23
2018-12-01T18:20:50.465Z,37.73
2018-12-01T18:23:20.005Z,47.47
2018-12-01T18:25:53.518Z,47.30
2018-12-01T18:28:26.965Z,46.00
2018-12-01T18:30:56.871Z,46.70
2018-12-01T18:33:31.785Z,36.77
2018-12-01T18:36:01.037Z,41.20
2018-12-01T18:38:30.060Z,47.73
2018-12-01T18:40:59.477Z,33.27
2018-12-01T18:43:28.531Z,51.53
2018-12-01T18:45:59.390Z,47.70
2018-12-01T18:48:28.796Z,45.03
2018-12-01T18:50:58.598Z,47.40
2018-12-01T18:53:27.571Z,45.90
2018-12-01T18:55:57.402Z,40.23
2018-12-01T18:58:26.361Z,54.17
2018-12-01T19:00:57.385Z,57.47
2018-12-01T19:03:28.844Z,51.23
2018-12-01T19:05:57.946Z,51.03
2018-12-01T19:08:26.945Z,54.20
2018-12-01T19:10:55.949Z,47.57
2018-12-01T19:13:24.976Z,54.53
2018-12-01T19:15:53.938Z,52.83
2018-12-01T19:18:22.902Z,61.63
2018-12-01T19:20:51.927Z,47.80
2018-12-01T19:23:20.905Z,56.30
2018-12-01T19:25:51.394Z,39.07
2018-12-01T19:28:20.388Z,54.57
2018-12-01T19:30:49.356Z,52.87
2018-12-01T19:33:20.776Z,44.67
2018-12-01T19:35:51.058Z,49.27
2018-12-01T19:38:24.475Z,44.47
2018-12-01T19:40:53.550Z,40.17
2018-12-01T19:43:22.515Z,45.53
2018-12-01T19:45:51.725Z,46.17
2018-12-01T19:48:20.699Z,46.97
2018-12-01T19:50:49.665Z,44.20
2018-12-01T19:53:19.715Z,44.83
2018-12-01T19:55:51.497Z,41.87
2018-12-01T19:58:23.001Z,35.83
2018-12-01T20:00:54.317Z,42.97
2018-12-01T20:03:24.708Z,36.83
2018-12-01T20:05:53.734Z,44.70
2018-12-01T20:08:23.250Z,32.67
2018-12-01T20:11:02.728Z,37.47
2018-12-01T20:13:40.276Z,41.43
2018-12-01T20:16:21.249Z,37.50
2018-12-01T20:18:50.357Z,43.33
2018-12-01T20:21:19.345Z,42.97
2018-12-01T20:23:48.385Z,38.40
2018-12-01T20:26:17.362Z,40.13
2018-12-01T20:28:46.410Z,43.87
2018-12-01T20:31:15.556Z,37.37
2018-12-01T20:33:44.534Z,44.10
2018-12-01T20:36:23.130Z,45.57
2018-12-01T20:39:25.965Z,40.40
2018-12-01T20:41:55.009Z,35.57
2018-12-01T20:44:24.921Z,28.93
2018-12-01T20:46:53.905Z,32.43
2018-12-01T20:49:23.006Z,31.27
2018-12-01T20:51:52.004Z,25.77
2018-12-01T20:54:39.073Z,35.73
2018-12-01T20:57:26.187Z,34.93
2018-12-01T20:59:55.213Z,29.83
2018-12-01T21:02:24.644Z,28.73
2018-12-01T21:04:53.594Z,23.40
2018-12-01T21:07:22.663Z,29.40
2018-12-01T21:09:51.663Z,23.67
2018-12-01T21:12:21.592Z,24.97
2018-12-01T21:14:50.703Z,24.60
2018-12-01T21:17:19.674Z,25.50
2018-12-01T21:19:48.649Z,27.33
2018-12-01T21:22:17.750Z,24.53
2018-12-01T21:24:47.526Z,22.77
2018-12-01T21:27:16.495Z,28.57
2018-12-01T21:29:45.594Z,27.40
2018-12-01T21:32:14.558Z,34.37
2018-12-01T21:34:44.387Z,34.83
2018-12-01T21:37:13.384Z,30.93
2018-12-01T21:39:42.336Z,30.60
2018-12-01T21:42:11.287Z,35.97
2018-12-01T21:44:40.274Z,41.43
2018-12-01T21:47:09.232Z,42.17
2018-12-01T21:49:38.200Z,36.10
2018-12-01T21:52:07.213Z,42.13
2018-12-01T21:54:36.171Z,39.53
2018-12-01T21:57:05.170Z,39.17
2018-12-01T21:59:34.386Z,64.67
2018-12-01T22:02:03.377Z,42.23
2018-12-01T22:04:32.344Z,28.87
2018-12-01T22:07:01.436Z,27.17
2018-12-01T22:09:30.406Z,29.17
2018-12-01T22:11:59.367Z,29.27
2018-12-01T22:14:28.482Z,31.10
2018-12-01T22:16:57.453Z,27.13
2018-12-01T22:19:26.412Z,24.07
2018-12-01T22:21:55.450Z,24.87
2018-12-01T22:24:24.421Z,25.60
2018-12-01T22:26:53.397Z,25.47
2018-12-01T22:29:22.402Z,26.33
2018-12-01T22:31:52.317Z,27.63
2018-12-01T22:34:21.310Z,26.80
2018-12-01T22:36:50.397Z,23.43
2018-12-01T22:39:20.326Z,25.40
2018-12-01T22:41:49.277Z,26.07
2018-12-01T22:44:18.351Z,24.60
2018-12-01T22:46:47.315Z,24.77
2018-12-01T22:49:16.282Z,26.53
2018-12-01T22:51:46.134Z,23.30
2018-12-01T22:54:15.103Z,27.03
2018-12-01T22:56:44.066Z,23.77
2018-12-01T22:59:13.166Z,23.77
2018-12-01T23:01:42.181Z,23.97
2018-12-01T23:04:11.134Z,23.43
2018-12-01T23:06:40.121Z,24.23
2018-12-01T23:09:09.119Z,24.80
2018-12-01T23:11:38.996Z,23.37
2018-12-01T23:14:08.098Z,22.93
2018-12-01T23:16:37.045Z,22.13
2018-12-01T23:19:06.671Z,22.53
2018-12-01T23:21:35.676Z,22.40
2018-12-01T23:24:05.097Z,22.50
2018-12-01T23:26:34.064Z,21.67
2018-12-01T23:29:03.151Z,23.20
2018-12-01T23:31:32.160Z,23.73
2018-12-01T23:34:01.109Z,24.17
2018-12-01T23:36:30.234Z,23.60
2018-12-01T23:38:59.202Z,23.20
2018-12-01T23:41:28.171Z,22.50
2018-12-01T23:43:57.165Z,23.30
2018-12-01T23:46:26.127Z,21.87
2018-12-01T23:48:55.102Z,22.77
2018-12-01T23:51:24.104Z,23.63
2018-12-01T23:53:53.058Z,22.20
2018-12-01T23:56:22.057Z,22.40
2018-12-01T23:58:51.087Z,22.23
